Emma Miller — WDE7441 — position and weather

sailwx.info

Track history (hours):
 
Tides and Currents Weather Stations Pressure Air Temp Water Temp Dewpoint Dewpoint Depression Visibility Wind Speed Wind Dir Waves Ship Positions

Emma Miller

Owner: Marine Oil Service of New York, Elizabeth, NJ. More information available from US FCC via Universal Licensing System and Coast Guard Vessel Documentation Center.

Last reported at 2018-Jan-19 18:04 UTC. Time now 2018-Jan-20 15:31 UTC.
Position N 40°38' W 074°12'.

; draft 1.7 m.

Type: Tanker. MMSI: 367393330.

Date/timePositionNaut miles runAvg speedWind from/ knotsBaromVisibWave heightAir tempDewpointWater temp
2018-Jan-19 18:04N 40°38' W 074°12'0 3.9
2018-Jan-19 17:58N 40°39' W 074°11'3 5.7
2018-Jan-19 17:30N 40°40' W 074°09'0 0.0
2018-Jan-19 17:00N 40°40' W 074°09'0 0.0
2018-Jan-19 16:30N 40°40' W 074°09'0 0.0
2018-Jan-19 16:00N 40°40' W 074°09'0 0.0
2018-Jan-19 15:30N 40°40' W 074°09'0 0.7
2018-Jan-19 15:00N 40°40' W 074°09'3 0.2
2018-Jan-19 00:46N 40°38' W 074°12'1 4.8
2018-Jan-19 00:30N 40°39' W 074°10'4 8.8
2018-Jan-19 00:00N 40°39' W 074°04'1 1.5
2018-Jan-18 23:29N 40°38' W 074°04'0 0.0
2018-Jan-18 23:00N 40°38' W 074°04'0 0.1
2018-Jan-18 22:30N 40°38' W 074°04'1 2.8
2018-Jan-18 22:00N 40°37' W 074°03'0 0.0
2018-Jan-18 21:30N 40°37' W 074°03'3 6.5
2018-Jan-18 21:00N 40°39' W 074°07'3 6.6
2018-Jan-18 20:30N 40°39' W 074°11'0 0.0
2018-Jan-18 20:00N 40°39' W 074°11'0 0.0
2018-Jan-18 19:29N 40°39' W 074°11'0 0.0
2018-Jan-18 19:00N 40°39' W 074°11'0 0.0
2018-Jan-18 18:30N 40°39' W 074°11'0 0.0
2018-Jan-18 18:00N 40°39' W 074°11'0 0.0
2018-Jan-18 17:29N 40°39' W 074°11'0 0.1
2018-Jan-18 17:00N 40°39' W 074°11'0 0.8
2018-Jan-18 16:30N 40°38' W 074°12'0 0.0
2018-Jan-18 16:00N 40°38' W 074°12'0 0.0
2018-Jan-18 00:27N 40°38' W 074°12'3 5.6
2018-Jan-18 00:00N 40°40' W 074°09'0 0.2
2018-Jan-17 23:57N 40°40' W 074°09'  
2018-Jan-10 12:08N 40°41' W 074°08'1 0.0
2018-Jan-09 20:44N 40°41' W 074°09'  
Track history (hours):
 
Tides and Currents Weather Stations Pressure Air Temp Water Temp Dewpoint Dewpoint Depression Visibility Wind Speed Wind Dir Waves Ship Positions

Emma Miller

Owner: Marine Oil Service of New York, Elizabeth, NJ. More information available from US FCC via Universal Licensing System and Coast Guard Vessel Documentation Center.

Last reported at 2018-Jan-19 18:04 UTC. Time now 2018-Jan-20 15:31 UTC.
Position N 40°38' W 074°12'.

; draft 1.7 m.

Type: Tanker. MMSI: 367393330.

Date/timePositionNaut miles runAvg speedWind from/ knotsBaromVisibWave heightAir tempDewpointWater temp
2018-Jan-19 18:04N 40°38' W 074°12'0 3.9
2018-Jan-19 17:58N 40°39' W 074°11'3 5.7
2018-Jan-19 17:30N 40°40' W 074°09'0 0.0
2018-Jan-19 17:00N 40°40' W 074°09'0 0.0
2018-Jan-19 16:30N 40°40' W 074°09'0 0.0
2018-Jan-19 16:00N 40°40' W 074°09'0 0.0
2018-Jan-19 15:30N 40°40' W 074°09'0 0.7
2018-Jan-19 15:00N 40°40' W 074°09'3 0.2
2018-Jan-19 00:46N 40°38' W 074°12'1 4.8
2018-Jan-19 00:30N 40°39' W 074°10'4 8.8
2018-Jan-19 00:00N 40°39' W 074°04'1 1.5
2018-Jan-18 23:29N 40°38' W 074°04'0 0.0
2018-Jan-18 23:00N 40°38' W 074°04'0 0.1
2018-Jan-18 22:30N 40°38' W 074°04'1 2.8
2018-Jan-18 22:00N 40°37' W 074°03'0 0.0
2018-Jan-18 21:30N 40°37' W 074°03'3 6.5
2018-Jan-18 21:00N 40°39' W 074°07'3 6.6
2018-Jan-18 20:30N 40°39' W 074°11'0 0.0
2018-Jan-18 20:00N 40°39' W 074°11'0 0.0
2018-Jan-18 19:29N 40°39' W 074°11'0 0.0
2018-Jan-18 19:00N 40°39' W 074°11'0 0.0
2018-Jan-18 18:30N 40°39' W 074°11'0 0.0
2018-Jan-18 18:00N 40°39' W 074°11'0 0.0
2018-Jan-18 17:29N 40°39' W 074°11'0 0.1
2018-Jan-18 17:00N 40°39' W 074°11'0 0.8
2018-Jan-18 16:30N 40°38' W 074°12'0 0.0
2018-Jan-18 16:00N 40°38' W 074°12'0 0.0
2018-Jan-18 00:27N 40°38' W 074°12'3 5.6
2018-Jan-18 00:00N 40°40' W 074°09'0 0.2
2018-Jan-17 23:57N 40°40' W 074°09'  
2018-Jan-10 12:08N 40°41' W 074°08'1 0.0
2018-Jan-09 20:44N 40°41' W 074°09'  

Dump ship's entire track history